Time;durP1;ratioP1;P1;durP2;ratioP2;P2;SDS_P1;SDS_P2;PMS_P1;PMS_P2;Temp;Humidity;BMP_temperature;BMP_pressure;BME280_temperature;BME280_humidity;BME280_pressure;Samples;Min_cycle;Max_cycle;Signal;HPM_P1;HPM_P2
2021/12/04 00:00:21;;;;;;;0.50;0.50;;;;;;;;;;5073894;28;20190;-64
2021/12/04 00:02:47;;;;;;;0.50;0.50;;;;;;;;;;5073946;28;20250;-64
2021/12/04 00:05:13;;;;;;;0.50;0.50;;;;;;;;;;5074260;28;20613;-64
2021/12/04 00:07:39;;;;;;;0.60;0.60;;;;;;;;;;5074042;28;20179;-64
2021/12/04 00:10:05;;;;;;;0.60;0.60;;;;;;;;;;5074197;28;20575;-64
2021/12/04 00:12:33;;;;;;;0.60;0.60;;;;;;;;;;5073984;28;20243;-63
2021/12/04 00:14:59;;;;;;;0.63;0.63;;;;;;;;;;5073845;28;20199;-63
2021/12/04 00:17:25;;;;;;;0.50;0.50;;;;;;;;;;5073947;28;20200;-63
2021/12/04 00:19:51;;;;;;;0.50;0.50;;;;;;;;;;5073771;28;20622;-64
2021/12/04 00:22:17;;;;;;;0.50;0.50;;;;;;;;;;5073741;28;20251;-64
2021/12/04 00:24:43;;;;;;;0.50;0.50;;;;;;;;;;5073784;28;20413;-64
2021/12/04 00:27:09;;;;;;;0.50;0.50;;;;;;;;;;5073745;28;20172;-64
2021/12/04 00:29:35;;;;;;;0.50;0.50;;;;;;;;;;5073637;28;20198;-64
2021/12/04 00:32:09;;;;;;;0.50;0.50;;;;;;;;;;5073545;28;20218;-64
2021/12/04 00:34:39;;;;;;;0.60;0.60;;;;;;;;;;5073632;28;20199;-64
2021/12/04 00:50:33;;;;;;;0.50;0.50;;;;;;;;;;5073650;28;20195;-64
2021/12/04 00:52:59;;;;;;;0.50;0.50;;;;;;;;;;5073421;28;20181;-64
2021/12/04 00:55:25;;;;;;;0.50;0.50;;;;;;;;;;5073253;28;20196;-64
2021/12/04 00:57:52;;;;;;;0.50;0.50;;;;;;;;;;5073499;28;20602;-62
2021/12/04 01:00:18;;;;;;;0.50;0.50;;;;;;;;;;5073017;28;20168;-64
2021/12/04 01:02:44;;;;;;;0.50;0.50;;;;;;;;;;5072829;28;20175;-63
2021/12/04 01:05:10;;;;;;;0.47;0.47;;;;;;;;;;5073098;28;20178;-64
2021/12/04 01:07:36;;;;;;;0.50;0.50;;;;;;;;;;5073103;28;20171;-64
2021/12/04 01:10:04;;;;;;;0.50;0.50;;;;;;;;;;5071569;28;20652;-63
2021/12/04 01:12:30;;;;;;;0.60;0.60;;;;;;;;;;5072723;28;20231;-64
2021/12/04 01:14:56;;;;;;;0.50;0.50;;;;;;;;;;5072690;28;20198;-64
2021/12/04 01:17:22;;;;;;;0.50;0.50;;;;;;;;;;5072824;28;20582;-64
2021/12/04 01:19:48;;;;;;;0.53;0.53;;;;;;;;;;5072586;28;20450;-64
2021/12/04 01:22:14;;;;;;;0.60;0.60;;;;;;;;;;5072517;28;20448;-64
2021/12/04 01:24:40;;;;;;;0.60;0.60;;;;;;;;;;5072610;28;20249;-63
2021/12/04 01:27:08;;;;;;;0.60;0.60;;;;;;;;;;5072587;28;20490;-64
2021/12/04 01:29:33;;;;;;;0.60;0.60;;;;;;;;;;5072486;28;20822;-63
2021/12/04 01:31:59;;;;;;;0.50;0.50;;;;;;;;;;5072304;28;20183;-64
2021/12/04 01:34:25;;;;;;;0.50;0.50;;;;;;;;;;5072457;28;20452;-64
2021/12/04 01:36:51;;;;;;;0.60;0.60;;;;;;;;;;5072352;28;20778;-64
2021/12/04 01:39:19;;;;;;;0.50;0.50;;;;;;;;;;5071060;28;20447;-64
2021/12/04 01:41:45;;;;;;;0.60;0.60;;;;;;;;;;5072050;28;20406;-64
2021/12/04 01:44:14;;;;;;;0.60;0.60;;;;;;;;;;5072252;28;20802;-64
2021/12/04 01:46:41;;;;;;;0.50;0.50;;;;;;;;;;5071762;28;20409;-63
2021/12/04 01:49:07;;;;;;;0.50;0.50;;;;;;;;;;5072088;28;20195;-64
2021/12/04 01:51:33;;;;;;;0.50;0.50;;;;;;;;;;5071947;28;20171;-64
2021/12/04 01:53:59;;;;;;;0.50;0.50;;;;;;;;;;5071882;28;20798;-64
2021/12/04 01:56:29;;;;;;;0.50;0.50;;;;;;;;;;5072565;28;20485;-65
2021/12/04 01:58:55;;;;;;;0.50;0.50;;;;;;;;;;5072503;28;20434;-63
2021/12/04 02:01:21;;;;;;;0.50;0.50;;;;;;;;;;5071636;28;20171;-62
2021/12/04 02:03:48;;;;;;;0.50;0.50;;;;;;;;;;5070884;28;20184;-64
2021/12/04 02:06:14;;;;;;;0.50;0.50;;;;;;;;;;5070906;28;20212;-64
2021/12/04 02:08:42;;;;;;;0.50;0.50;;;;;;;;;;5071917;28;20693;-64
2021/12/04 02:11:08;;;;;;;0.50;0.50;;;;;;;;;;5071962;28;20417;-65
2021/12/04 02:13:34;;;;;;;0.50;0.50;;;;;;;;;;5071762;28;20178;-64
2021/12/04 02:16:03;;;;;;;0.50;0.50;;;;;;;;;;5072079;28;20998;-64
2021/12/04 02:18:29;;;;;;;0.50;0.50;;;;;;;;;;5071937;28;20444;-65
2021/12/04 02:20:56;;;;;;;0.50;0.50;;;;;;;;;;5071661;28;20250;-65
2021/12/04 02:23:21;;;;;;;0.50;0.50;;;;;;;;;;5071812;28;20163;-65
2021/12/04 02:25:48;;;;;;;0.50;0.50;;;;;;;;;;5071706;28;20570;-64
2021/12/04 02:28:14;;;;;;;0.40;0.40;;;;;;;;;;5071608;28;20194;-64
2021/12/04 02:30:41;;;;;;;0.50;0.50;;;;;;;;;;5071519;28;20159;-64
2021/12/04 02:33:11;;;;;;;0.50;0.50;;;;;;;;;;5070386;28;20408;-64
2021/12/04 02:35:42;;;;;;;0.50;0.50;;;;;;;;;;5071498;28;20293;-64
2021/12/04 02:38:08;;;;;;;0.50;0.50;;;;;;;;;;5071527;28;20234;-64
2021/12/04 02:40:34;;;;;;;0.50;0.50;;;;;;;;;;5071348;28;20171;-65
2021/12/04 02:43:00;;;;;;;0.50;0.50;;;;;;;;;;5071395;28;20173;-66
2021/12/04 02:45:26;;;;;;;0.50;0.50;;;;;;;;;;5071490;28;20410;-66
2021/12/04 02:47:52;;;;;;;0.50;0.50;;;;;;;;;;5071389;28;20497;-66
2021/12/04 02:50:18;;;;;;;0.50;0.50;;;;;;;;;;5071314;28;20465;-63
2021/12/04 02:52:44;;;;;;;0.60;0.60;;;;;;;;;;5071410;28;20642;-65
2021/12/04 02:55:10;;;;;;;0.50;0.50;;;;;;;;;;5071281;28;20978;-65
2021/12/04 02:57:42;;;;;;;0.50;0.50;;;;;;;;;;5071105;28;20662;-64
2021/12/04 03:00:09;;;;;;;0.50;0.50;;;;;;;;;;5074833;28;20175;-64
2021/12/04 03:02:35;;;;;;;0.45;0.45;;;;;;;;;;5073982;28;20583;-65
2021/12/04 03:05:06;;;;;;;0.50;0.50;;;;;;;;;;5075323;28;20172;-63
2021/12/04 03:07:33;;;;;;;0.50;0.50;;;;;;;;;;5075439;28;20576;-64
2021/12/04 03:09:59;;;;;;;0.40;0.40;;;;;;;;;;5114331;22;20230;-64
2021/12/04 03:12:27;;;;;;;0.40;0.40;;;;;;;;;;5094594;28;20178;-66
2021/12/04 03:14:54;;;;;;;0.50;0.50;;;;;;;;;;5095203;28;20448;-66
2021/12/04 03:17:22;;;;;;;0.50;0.50;;;;;;;;;;5095568;28;20702;-64
2021/12/04 03:19:52;;;;;;;0.50;0.50;;;;;;;;;;5095154;28;20273;-65
2021/12/04 03:22:19;;;;;;;0.60;0.60;;;;;;;;;;5095031;28;20181;-65
2021/12/04 03:24:46;;;;;;;0.45;0.45;;;;;;;;;;5095030;28;20573;-65
2021/12/04 03:27:13;;;;;;;0.40;0.40;;;;;;;;;;5095068;28;20205;-65
2021/12/04 03:29:47;;;;;;;0.50;0.50;;;;;;;;;;5094882;28;20247;-65
2021/12/04 03:35:22;;;;;;;0.50;0.50;;;;;;;;;;5094898;28;20742;-65
2021/12/04 03:40:39;;;;;;;0.50;0.50;;;;;;;;;;5094317;28;20185;-64
2021/12/04 03:43:08;;;;;;;0.40;0.40;;;;;;;;;;5094914;28;20201;-65
2021/12/04 03:45:36;;;;;;;0.40;0.40;;;;;;;;;;5076580;28;20179;-66
2021/12/04 03:48:07;;;;;;;0.50;0.50;;;;;;;;;;5094696;28;20171;-65
2021/12/04 03:50:34;;;;;;;0.60;0.60;;;;;;;;;;5094356;28;20263;-65
2021/12/04 03:53:00;;;;;;;0.50;0.50;;;;;;;;;;5094440;28;20180;-64
2021/12/04 03:55:25;;;;;;;0.50;0.50;;;;;;;;;;5094483;28;20228;-65
2021/12/04 03:57:52;;;;;;;0.40;0.40;;;;;;;;;;5094425;28;20411;-65
2021/12/04 04:00:18;;;;;;;0.50;0.50;;;;;;;;;;5094227;28;20417;-65
2021/12/04 04:02:44;;;;;;;0.50;0.50;;;;;;;;;;5076153;28;20262;-66
2021/12/04 04:05:11;;;;;;;0.47;0.47;;;;;;;;;;5094150;28;20178;-66
2021/12/04 04:07:37;;;;;;;0.50;0.50;;;;;;;;;;5094186;28;20304;-66
2021/12/04 04:10:04;;;;;;;0.40;0.40;;;;;;;;;;5075419;28;20214;-63
2021/12/04 04:12:30;;;;;;;0.50;0.50;;;;;;;;;;5094219;28;20179;-66
2021/12/04 04:14:56;;;;;;;0.55;0.55;;;;;;;;;;5094065;28;20216;-65
2021/12/04 04:17:22;;;;;;;0.50;0.50;;;;;;;;;;5094217;28;20647;-66
2021/12/04 04:19:48;;;;;;;0.50;0.50;;;;;;;;;;5093904;28;20186;-66
2021/12/04 04:22:14;;;;;;;0.50;0.50;;;;;;;;;;5093748;28;20170;-65
2021/12/04 04:24:40;;;;;;;0.40;0.40;;;;;;;;;;5093868;28;20406;-65
2021/12/04 04:27:06;;;;;;;0.50;0.50;;;;;;;;;;5093927;28;20487;-66
2021/12/04 04:29:32;;;;;;;0.43;0.43;;;;;;;;;;5093825;28;20266;-66
2021/12/04 04:31:58;;;;;;;0.50;0.50;;;;;;;;;;5093558;28;20202;-66
2021/12/04 04:34:36;;;;;;;0.40;0.40;;;;;;;;;;5075433;28;20492;-66
2021/12/04 04:37:16;;;;;;;0.40;0.40;;;;;;;;;;5093721;28;20175;-65
2021/12/04 05:14:33;;;;;;;0.40;0.40;;;;;;;;;;5093129;28;20217;-65
2021/12/04 05:17:06;;;;;;;0.40;0.40;;;;;;;;;;5092875;28;20178;-64
2021/12/04 05:19:42;;;;;;;0.50;0.50;;;;;;;;;;5092901;28;20189;-66
2021/12/04 05:22:09;;;;;;;0.50;0.50;;;;;;;;;;5092148;28;20183;-65
2021/12/04 05:24:35;;;;;;;0.50;0.50;;;;;;;;;;5092882;28;20178;-65
2021/12/04 05:27:01;;;;;;;0.40;0.40;;;;;;;;;;5092914;28;20180;-65
2021/12/04 05:29:27;;;;;;;0.60;0.60;;;;;;;;;;5092699;28;20341;-65
2021/12/04 05:31:53;;;;;;;0.50;0.50;;;;;;;;;;5092663;28;20199;-65
2021/12/04 05:34:19;;;;;;;0.50;0.50;;;;;;;;;;5092480;28;20597;-65
2021/12/04 05:36:45;;;;;;;0.50;0.50;;;;;;;;;;5092488;28;20164;-65
2021/12/04 05:39:11;;;;;;;0.47;0.47;;;;;;;;;;5092395;28;20464;-65
2021/12/04 05:41:38;;;;;;;0.40;0.40;;;;;;;;;;5092417;28;20184;-66
2021/12/04 05:44:07;;;;;;;0.50;0.50;;;;;;;;;;5092263;28;20179;-66
2021/12/04 05:46:38;;;;;;;0.40;0.40;;;;;;;;;;5092371;28;20537;-65
2021/12/04 05:49:11;;;;;;;0.40;0.40;;;;;;;;;;5092662;28;20682;-65
2021/12/04 05:51:51;;;;;;;0.40;0.40;;;;;;;;;;5092058;28;20186;-65
2021/12/04 05:56:47;;;;;;;0.50;0.50;;;;;;;;;;5092202;28;20167;-65
2021/12/04 05:59:13;;;;;;;0.40;0.40;;;;;;;;;;5092049;28;20270;-65
2021/12/04 06:01:40;;;;;;;0.40;0.40;;;;;;;;;;5091889;28;20221;-65
2021/12/04 06:04:06;;;;;;;0.50;0.50;;;;;;;;;;5091991;28;20177;-65
2021/12/04 06:06:32;;;;;;;0.50;0.50;;;;;;;;;;5091999;28;20614;-65
2021/12/04 06:08:58;;;;;;;0.50;0.50;;;;;;;;;;5091839;28;20440;-65
2021/12/04 06:11:24;;;;;;;0.50;0.50;;;;;;;;;;5091911;28;20649;-65
2021/12/04 06:13:50;;;;;;;0.50;0.50;;;;;;;;;;5091918;28;20452;-66
2021/12/04 06:16:16;;;;;;;0.50;0.50;;;;;;;;;;5091966;28;20164;-66
2021/12/04 06:18:45;;;;;;;0.40;0.40;;;;;;;;;;5091715;28;20540;-65
2021/12/04 06:23:56;;;;;;;0.50;0.50;;;;;;;;;;5091913;28;20229;-64
2021/12/04 06:26:23;;;;;;;0.40;0.40;;;;;;;;;;5073715;28;20642;-65
2021/12/04 06:28:48;;;;;;;0.40;0.40;;;;;;;;;;5091696;28;20428;-66
2021/12/04 06:31:15;;;;;;;0.40;0.40;;;;;;;;;;5090094;28;20188;-65
2021/12/04 06:33:41;;;;;;;0.40;0.40;;;;;;;;;;5091300;28;20463;-66
2021/12/04 06:36:08;;;;;;;0.40;0.40;;;;;;;;;;5091505;28;20169;-65
2021/12/04 06:38:34;;;;;;;0.40;0.40;;;;;;;;;;5091642;28;20187;-65
2021/12/04 06:41:00;;;;;;;0.40;0.40;;;;;;;;;;5091414;28;20571;-65
2021/12/04 06:43:26;;;;;;;0.40;0.40;;;;;;;;;;5091738;28;20251;-64
2021/12/04 06:45:58;;;;;;;0.40;0.40;;;;;;;;;;5091666;28;20173;-64
2021/12/04 06:48:28;;;;;;;0.40;0.40;;;;;;;;;;5092081;28;20193;-65
2021/12/04 06:50:58;;;;;;;0.40;0.40;;;;;;;;;;5091290;28;20161;-65
2021/12/04 06:53:29;;;;;;;0.40;0.40;;;;;;;;;;5091722;28;20171;-65
2021/12/04 06:55:58;;;;;;;0.30;0.30;;;;;;;;;;5091527;28;20175;-65
2021/12/04 06:58:27;;;;;;;0.40;0.40;;;;;;;;;;5091423;28;20283;-64
2021/12/04 07:00:53;;;;;;;0.40;0.40;;;;;;;;;;5091297;28;20164;-66
2021/12/04 07:03:19;;;;;;;0.50;0.50;;;;;;;;;;5091306;28;20547;-63
2021/12/04 07:05:45;;;;;;;0.40;0.40;;;;;;;;;;5091353;28;20196;-65
2021/12/04 07:08:11;;;;;;;0.50;0.50;;;;;;;;;;5091159;28;20174;-66
2021/12/04 07:10:37;;;;;;;0.40;0.40;;;;;;;;;;5091172;28;20318;-64
2021/12/04 07:13:04;;;;;;;0.40;0.40;;;;;;;;;;5091354;28;20402;-65
2021/12/04 07:15:31;;;;;;;0.40;0.40;;;;;;;;;;5091678;28;20663;-65
2021/12/04 07:17:58;;;;;;;0.40;0.40;;;;;;;;;;5091133;28;20255;-65
2021/12/04 07:20:24;;;;;;;0.40;0.40;;;;;;;;;;5091128;28;20204;-64
2021/12/04 07:22:50;;;;;;;0.40;0.40;;;;;;;;;;5091333;28;20407;-65
2021/12/04 07:25:16;;;;;;;0.40;0.40;;;;;;;;;;5090812;28;20172;-65
2021/12/04 07:27:43;;;;;;;0.40;0.40;;;;;;;;;;5091123;28;20223;-65
2021/12/04 07:30:09;;;;;;;0.50;0.50;;;;;;;;;;5091404;28;20685;-65
2021/12/04 07:32:37;;;;;;;0.40;0.40;;;;;;;;;;5072862;28;20181;-64
2021/12/04 07:35:03;;;;;;;0.40;0.40;;;;;;;;;;5091307;28;20211;-64
2021/12/04 07:37:29;;;;;;;0.40;0.40;;;;;;;;;;5091093;28;20174;-64
2021/12/04 07:39:55;;;;;;;0.40;0.40;;;;;;;;;;5091140;28;20188;-64
2021/12/04 07:42:21;;;;;;;0.50;0.50;;;;;;;;;;5090897;28;20411;-65
2021/12/04 07:44:47;;;;;;;0.50;0.50;;;;;;;;;;5092238;28;20536;-65
2021/12/04 07:47:14;;;;;;;0.40;0.40;;;;;;;;;;5094644;28;20225;-66
2021/12/04 07:49:40;;;;;;;0.50;0.50;;;;;;;;;;5094529;28;20434;-66
2021/12/04 07:52:07;;;;;;;0.40;0.40;;;;;;;;;;5094376;28;20169;-66
2021/12/04 07:54:33;;;;;;;0.50;0.50;;;;;;;;;;5094534;28;20204;-67
2021/12/04 07:56:59;;;;;;;0.40;0.40;;;;;;;;;;5094518;28;20172;-66
2021/12/04 07:59:26;;;;;;;0.38;0.38;;;;;;;;;;5094123;28;20201;-67
2021/12/04 08:01:52;;;;;;;0.40;0.40;;;;;;;;;;5094154;28;20173;-66
2021/12/04 08:04:19;;;;;;;0.40;0.40;;;;;;;;;;5094562;28;20259;-66
2021/12/04 08:06:45;;;;;;;0.35;0.35;;;;;;;;;;5094123;28;20181;-66
2021/12/04 08:09:11;;;;;;;0.40;0.40;;;;;;;;;;5093662;28;20240;-64
2021/12/04 08:11:37;;;;;;;0.40;0.40;;;;;;;;;;5093968;28;20197;-65
2021/12/04 08:14:03;;;;;;;0.40;0.40;;;;;;;;;;5093924;28;20196;-65
2021/12/04 08:16:32;;;;;;;0.40;0.40;;;;;;;;;;5093519;28;20189;-62
2021/12/04 08:18:58;;;;;;;0.40;0.40;;;;;;;;;;5078686;28;20450;-64
2021/12/04 08:21:24;;;;;;;0.40;0.40;;;;;;;;;;5075594;28;20182;-64
2021/12/04 08:23:50;;;;;;;0.40;0.40;;;;;;;;;;5093870;28;20411;-65
2021/12/04 08:26:16;;;;;;;0.40;0.40;;;;;;;;;;5093753;28;20660;-60
2021/12/04 08:28:42;;;;;;;0.50;0.50;;;;;;;;;;5093569;28;20948;-64
2021/12/04 08:31:08;;;;;;;0.40;0.40;;;;;;;;;;5093455;28;20264;-65
2021/12/04 08:33:34;;;;;;;0.40;0.40;;;;;;;;;;5093414;28;20248;-64
2021/12/04 08:36:03;;;;;;;0.50;0.50;;;;;;;;;;5092905;28;20173;-65
2021/12/04 08:38:29;;;;;;;0.40;0.40;;;;;;;;;;5092739;28;20655;-65
2021/12/04 08:40:55;;;;;;;0.40;0.40;;;;;;;;;;5093288;28;20204;-65
2021/12/04 08:43:21;;;;;;;0.40;0.40;;;;;;;;;;5092506;28;20778;-66
2021/12/04 08:45:47;;;;;;;0.40;0.40;;;;;;;;;;5091846;28;20407;-65
2021/12/04 08:48:13;;;;;;;0.40;0.40;;;;;;;;;;5093336;28;20416;-65
2021/12/04 08:50:39;;;;;;;0.40;0.40;;;;;;;;;;5091544;28;20266;-65
2021/12/04 08:53:06;;;;;;;0.40;0.40;;;;;;;;;;5092556;28;20173;-63
2021/12/04 08:55:35;;;;;;;0.40;0.40;;;;;;;;;;5092342;28;20206;-64
2021/12/04 08:58:01;;;;;;;0.40;0.40;;;;;;;;;;5091656;28;20188;-64
2021/12/04 09:00:34;;;;;;;0.40;0.40;;;;;;;;;;5092994;28;20165;-65
2021/12/04 09:03:00;;;;;;;0.30;0.30;;;;;;;;;;5093177;28;20407;-66
2021/12/04 09:05:26;;;;;;;0.40;0.40;;;;;;;;;;5092936;28;20587;-63
2021/12/04 09:07:53;;;;;;;0.40;0.40;;;;;;;;;;5093026;28;20190;-65
2021/12/04 09:10:20;;;;;;;0.40;0.40;;;;;;;;;;5113211;22;20555;-65
2021/12/04 09:12:46;;;;;;;0.40;0.40;;;;;;;;;;5092653;28;20173;-65
2021/12/04 09:15:13;;;;;;;0.50;0.50;;;;;;;;;;5071981;28;20204;-65
2021/12/04 09:17:39;;;;;;;0.30;0.30;;;;;;;;;;5092829;28;20174;-65
2021/12/04 09:20:07;;;;;;;0.40;0.40;;;;;;;;;;5091785;28;20193;-66
2021/12/04 09:22:35;;;;;;;0.40;0.40;;;;;;;;;;5090832;28;20403;-65
2021/12/04 09:25:06;;;;;;;0.40;0.40;;;;;;;;;;5092659;28;20181;-66
2021/12/04 09:27:40;;;;;;;0.40;0.40;;;;;;;;;;5091271;28;20264;-66
2021/12/04 09:30:19;;;;;;;0.40;0.40;;;;;;;;;;5092614;28;20215;-66
2021/12/04 09:33:31;;;;;;;0.40;0.40;;;;;;;;;;5092349;28;20173;-66
2021/12/04 10:06:30;;;;;;;0.40;0.40;;;;;;;;;;5092658;28;20254;-66
2021/12/04 10:15:22;;;;;;;0.40;0.40;;;;;;;;;;5092032;28;20756;-66
2021/12/04 10:34:15;;;;;;;0.50;0.50;;;;;;;;;;5091878;28;20676;-65
2021/12/04 10:36:41;;;;;;;0.40;0.40;;;;;;;;;;5091838;28;20596;-65
2021/12/04 10:39:11;;;;;;;0.40;0.40;;;;;;;;;;5091804;28;20190;-66
2021/12/04 10:41:40;;;;;;;0.40;0.40;;;;;;;;;;5091634;28;20170;-65
2021/12/04 10:44:14;;;;;;;0.50;0.50;;;;;;;;;;5073516;28;20181;-66
2021/12/04 10:46:41;;;;;;;0.40;0.40;;;;;;;;;;5091772;28;20170;-66
2021/12/04 10:49:12;;;;;;;0.50;0.50;;;;;;;;;;5090417;28;20202;-66
2021/12/04 10:51:52;;;;;;;0.50;0.50;;;;;;;;;;5091560;28;20253;-66
2021/12/04 10:54:25;;;;;;;0.40;0.40;;;;;;;;;;5091667;28;20194;-66
2021/12/04 10:57:26;;;;;;;0.40;0.40;;;;;;;;;;5091494;28;20165;-66
2021/12/04 11:00:03;;;;;;;0.40;0.40;;;;;;;;;;5090630;28;20220;-66
2021/12/04 11:03:05;;;;;;;0.40;0.40;;;;;;;;;;5091583;28;20384;-66
2021/12/04 11:38:56;;;;;;;0.40;0.40;;;;;;;;;;5094138;28;20178;-66
2021/12/04 11:46:25;;;;;;;0.50;0.50;;;;;;;;;;5094879;28;20590;-67
2021/12/04 11:48:51;;;;;;;0.40;0.40;;;;;;;;;;5094470;28;20268;-66
2021/12/04 11:51:22;;;;;;;0.40;0.40;;;;;;;;;;5093964;28;20174;-66
2021/12/04 11:53:49;;;;;;;0.40;0.40;;;;;;;;;;5094432;28;20253;-66
2021/12/04 11:56:16;;;;;;;0.50;0.50;;;;;;;;;;5091692;28;20170;-66
2021/12/04 11:58:44;;;;;;;0.40;0.40;;;;;;;;;;5092590;28;20166;-66
2021/12/04 12:01:31;;;;;;;0.40;0.40;;;;;;;;;;5093929;28;20182;-66
2021/12/04 12:03:59;;;;;;;0.40;0.40;;;;;;;;;;5091123;28;20190;-66
2021/12/04 12:06:43;;;;;;;0.43;0.43;;;;;;;;;;5094283;28;20188;-65
2021/12/04 12:09:14;;;;;;;0.50;0.50;;;;;;;;;;5094059;28;20220;-65
2021/12/04 12:11:52;;;;;;;0.50;0.50;;;;;;;;;;5094165;28;20685;-66
2021/12/04 12:14:21;;;;;;;0.50;0.50;;;;;;;;;;5093889;28;20210;-66
2021/12/04 12:16:50;;;;;;;0.40;0.40;;;;;;;;;;5094067;28;20680;-66
2021/12/04 12:19:26;;;;;;;0.50;0.50;;;;;;;;;;5074985;28;20558;-66
2021/12/04 12:22:03;;;;;;;0.40;0.40;;;;;;;;;;5075550;28;20174;-66
2021/12/04 12:27:25;;;;;;;0.40;0.40;;;;;;;;;;5093331;28;20182;-66
2021/12/04 12:38:15;;;;;;;0.40;0.40;;;;;;;;;;5093058;28;20604;-65
2021/12/04 12:40:41;;;;;;;0.40;0.40;;;;;;;;;;5093329;28;20542;-65
2021/12/04 12:43:18;;;;;;;0.50;0.50;;;;;;;;;;5093538;28;20204;-65
2021/12/04 12:45:55;;;;;;;0.40;0.40;;;;;;;;;;5093262;28;20176;-65
2021/12/04 12:48:21;;;;;;;0.40;0.40;;;;;;;;;;5091491;28;20177;-65
2021/12/04 12:50:48;;;;;;;0.40;0.40;;;;;;;;;;5091222;28;20198;-65
2021/12/04 12:53:16;;;;;;;0.40;0.40;;;;;;;;;;5091524;28;20465;-65
2021/12/04 12:55:43;;;;;;;0.50;0.50;;;;;;;;;;5090967;28;20208;-65
2021/12/04 12:58:14;;;;;;;0.40;0.40;;;;;;;;;;5072802;28;20231;-65
2021/12/04 13:12:05;;;;;;;0.50;0.50;;;;;;;;;;5077778;28;20189;-65
2021/12/04 13:14:40;;;;;;;0.40;0.40;;;;;;;;;;5092959;28;20194;-65
2021/12/04 13:17:08;;;;;;;0.40;0.40;;;;;;;;;;5092907;28;20184;-65
2021/12/04 13:19:37;;;;;;;0.40;0.40;;;;;;;;;;5092947;28;20195;-65
2021/12/04 13:22:08;;;;;;;0.40;0.40;;;;;;;;;;5092643;28;20582;-65
2021/12/04 13:24:35;;;;;;;0.40;0.40;;;;;;;;;;5074672;28;20209;-65
2021/12/04 13:29:36;;;;;;;0.40;0.40;;;;;;;;;;5093117;28;20228;-65
2021/12/04 13:32:04;;;;;;;0.40;0.40;;;;;;;;;;5074343;28;20223;-65
2021/12/04 13:34:31;;;;;;;0.40;0.40;;;;;;;;;;5092544;28;20202;-65
2021/12/04 13:36:58;;;;;;;0.40;0.40;;;;;;;;;;5092608;28;20170;-65
2021/12/04 13:39:24;;;;;;;0.40;0.40;;;;;;;;;;5092451;28;20206;-65
2021/12/04 13:41:52;;;;;;;0.40;0.40;;;;;;;;;;5091788;28;20645;-65
2021/12/04 13:44:18;;;;;;;0.40;0.40;;;;;;;;;;5092488;28;20259;-65
2021/12/04 13:46:46;;;;;;;0.40;0.40;;;;;;;;;;5092440;28;20209;-65
2021/12/04 13:49:14;;;;;;;0.40;0.40;;;;;;;;;;5092091;28;20224;-65
2021/12/04 13:51:40;;;;;;;0.38;0.38;;;;;;;;;;5092044;28;20182;-65
2021/12/04 13:54:06;;;;;;;0.40;0.40;;;;;;;;;;5092330;28;20248;-65
2021/12/04 13:56:33;;;;;;;0.40;0.40;;;;;;;;;;5074039;28;20175;-65
2021/12/04 13:59:00;;;;;;;0.40;0.40;;;;;;;;;;5092171;28;20334;-65
2021/12/04 14:01:27;;;;;;;0.40;0.40;;;;;;;;;;5073881;28;20171;-65
2021/12/04 14:03:57;;;;;;;0.40;0.40;;;;;;;;;;5092100;28;20178;-65
2021/12/04 14:06:24;;;;;;;0.30;0.30;;;;;;;;;;5074083;28;20216;-65
2021/12/04 14:08:57;;;;;;;0.40;0.40;;;;;;;;;;5091853;28;20209;-65
2021/12/04 14:11:34;;;;;;;0.40;0.40;;;;;;;;;;5091873;28;20243;-65
2021/12/04 14:14:09;;;;;;;0.40;0.40;;;;;;;;;;5091836;28;20174;-65
2021/12/04 14:16:35;;;;;;;0.40;0.40;;;;;;;;;;5091889;28;20166;-65
2021/12/04 14:19:10;;;;;;;0.40;0.40;;;;;;;;;;5073546;28;20193;-65
2021/12/04 14:21:36;;;;;;;0.40;0.40;;;;;;;;;;5091499;28;20411;-65
2021/12/04 14:24:02;;;;;;;0.30;0.30;;;;;;;;;;5091806;28;20175;-65
2021/12/04 14:26:28;;;;;;;0.40;0.40;;;;;;;;;;5091855;28;20474;-65
2021/12/04 14:28:54;;;;;;;0.40;0.40;;;;;;;;;;5091686;28;20596;-65
2021/12/04 14:31:22;;;;;;;0.40;0.40;;;;;;;;;;5091540;28;20416;-65
2021/12/04 14:33:48;;;;;;;0.40;0.40;;;;;;;;;;5091621;28;20922;-65
2021/12/04 14:36:19;;;;;;;0.40;0.40;;;;;;;;;;5091700;28;20170;-65
2021/12/04 14:38:45;;;;;;;0.40;0.40;;;;;;;;;;5091580;28;20411;-65
2021/12/04 14:41:12;;;;;;;0.40;0.40;;;;;;;;;;5091398;28;20173;-68
2021/12/04 14:43:39;;;;;;;0.40;0.40;;;;;;;;;;5091650;28;20253;-65
2021/12/04 14:46:10;;;;;;;0.40;0.40;;;;;;;;;;5091713;28;20604;-65
2021/12/04 14:48:38;;;;;;;0.40;0.40;;;;;;;;;;5091467;28;20258;-65
2021/12/04 14:51:13;;;;;;;0.40;0.40;;;;;;;;;;5091359;28;20541;-66
2021/12/04 14:53:43;;;;;;;0.40;0.40;;;;;;;;;;5091673;28;20272;-66
2021/12/04 14:56:10;;;;;;;0.40;0.40;;;;;;;;;;5095622;28;20669;-66
2021/12/04 14:58:36;;;;;;;0.40;0.40;;;;;;;;;;5095600;28;20170;-66
2021/12/04 15:01:08;;;;;;;0.40;0.40;;;;;;;;;;5095550;28;20166;-66
2021/12/04 15:03:42;;;;;;;0.40;0.40;;;;;;;;;;5095585;28;20169;-66
2021/12/04 15:06:12;;;;;;;0.40;0.40;;;;;;;;;;5095458;28;20166;-66
2021/12/04 15:08:40;;;;;;;0.40;0.40;;;;;;;;;;5095285;28;20173;-66
2021/12/04 15:11:11;;;;;;;0.40;0.40;;;;;;;;;;5078316;28;20174;-66
2021/12/04 15:13:42;;;;;;;0.47;0.47;;;;;;;;;;5095670;28;20177;-65
2021/12/04 15:16:10;;;;;;;0.40;0.40;;;;;;;;;;5095409;28;20194;-65
2021/12/04 15:18:38;;;;;;;0.40;0.40;;;;;;;;;;5077196;28;20693;-66
2021/12/04 15:21:11;;;;;;;0.50;0.50;;;;;;;;;;5095143;28;20197;-65
2021/12/04 15:23:39;;;;;;;0.40;0.40;;;;;;;;;;5095363;28;20643;-66
2021/12/04 15:26:17;;;;;;;0.40;0.40;;;;;;;;;;5095104;28;20178;-66
2021/12/04 15:28:47;;;;;;;0.40;0.40;;;;;;;;;;5094964;28;20821;-66
2021/12/04 15:31:13;;;;;;;0.40;0.40;;;;;;;;;;5094831;28;20647;-66
2021/12/04 15:33:41;;;;;;;0.40;0.40;;;;;;;;;;5094905;28;20347;-66
2021/12/04 15:36:10;;;;;;;0.30;0.30;;;;;;;;;;5076836;28;20451;-66
2021/12/04 15:38:47;;;;;;;0.40;0.40;;;;;;;;;;5094757;28;20169;-65
2021/12/04 15:44:04;;;;;;;0.40;0.40;;;;;;;;;;5094835;28;20265;-65
2021/12/04 15:54:09;;;;;;;0.40;0.40;;;;;;;;;;5094553;28;20673;-65
2021/12/04 15:56:50;;;;;;;0.40;0.40;;;;;;;;;;5094568;28;20587;-66
2021/12/04 15:59:17;;;;;;;0.40;0.40;;;;;;;;;;5091852;28;20190;-66
2021/12/04 16:01:43;;;;;;;0.40;0.40;;;;;;;;;;5094148;28;20178;-66
2021/12/04 16:04:39;;;;;;;0.40;0.40;;;;;;;;;;5094246;28;20265;-66
2021/12/04 16:07:05;;;;;;;0.40;0.40;;;;;;;;;;5072497;28;20221;-66
2021/12/04 16:09:33;;;;;;;0.40;0.40;;;;;;;;;;5075432;28;20333;-65
2021/12/04 16:12:03;;;;;;;0.50;0.50;;;;;;;;;;5094097;28;20580;-66
2021/12/04 16:14:37;;;;;;;0.40;0.40;;;;;;;;;;5094037;28;20677;-65
2021/12/04 16:17:04;;;;;;;0.50;0.50;;;;;;;;;;5082948;28;20209;-66
2021/12/04 16:19:32;;;;;;;0.40;0.40;;;;;;;;;;5073859;28;20562;-66
2021/12/04 16:22:01;;;;;;;0.40;0.40;;;;;;;;;;5073698;28;20171;-66
2021/12/04 16:24:28;;;;;;;0.40;0.40;;;;;;;;;;5073511;28;20163;-66
2021/12/04 16:27:00;;;;;;;0.40;0.40;;;;;;;;;;5073490;28;20179;-66
2021/12/04 16:29:29;;;;;;;0.40;0.40;;;;;;;;;;5073587;28;20692;-66
2021/12/04 16:37:15;;;;;;;0.40;0.40;;;;;;;;;;5073576;28;20195;-66
2021/12/04 16:39:41;;;;;;;0.40;0.40;;;;;;;;;;5073228;28;20487;-65
2021/12/04 16:42:09;;;;;;;0.40;0.40;;;;;;;;;;5073247;28;20174;-65
2021/12/04 16:44:35;;;;;;;0.40;0.40;;;;;;;;;;5073404;28;20225;-65
2021/12/04 16:47:04;;;;;;;0.40;0.40;;;;;;;;;;5073409;28;20171;-66
2021/12/04 16:49:30;;;;;;;0.40;0.40;;;;;;;;;;5055382;28;20622;-66
2021/12/04 16:55:25;;;;;;;0.40;0.40;;;;;;;;;;5085583;28;20738;-66
2021/12/04 17:00:29;;;;;;;0.40;0.40;;;;;;;;;;5072192;28;20229;-66
2021/12/04 17:02:56;;;;;;;0.40;0.40;;;;;;;;;;5089206;28;20186;-65
2021/12/04 17:05:22;;;;;;;0.40;0.40;;;;;;;;;;5087652;28;20179;-65
2021/12/04 17:07:48;;;;;;;0.40;0.40;;;;;;;;;;5089662;28;20648;-65
2021/12/04 17:10:14;;;;;;;0.40;0.40;;;;;;;;;;5091858;28;20252;-65
2021/12/04 17:12:40;;;;;;;0.40;0.40;;;;;;;;;;5086796;28;20520;-65
2021/12/04 17:15:08;;;;;;;0.40;0.40;;;;;;;;;;5092480;28;20640;-66
2021/12/04 17:17:42;;;;;;;0.50;0.50;;;;;;;;;;5082121;28;20464;-66
2021/12/04 17:20:08;;;;;;;0.60;0.60;;;;;;;;;;5072753;28;20236;-65
2021/12/04 17:22:34;;;;;;;0.40;0.40;;;;;;;;;;5072708;28;20172;-65
2021/12/04 17:25:00;;;;;;;0.40;0.40;;;;;;;;;;5072853;28;20934;-66
2021/12/04 17:27:26;;;;;;;0.40;0.40;;;;;;;;;;5072533;28;20409;-65
2021/12/04 17:29:53;;;;;;;0.40;0.40;;;;;;;;;;5072179;28;20463;-66
2021/12/04 17:32:20;;;;;;;0.50;0.50;;;;;;;;;;5072246;28;20171;-65
2021/12/04 17:34:47;;;;;;;0.40;0.40;;;;;;;;;;5075479;28;20211;-66
2021/12/04 17:37:14;;;;;;;0.40;0.40;;;;;;;;;;5089272;28;20189;-66
2021/12/04 17:39:41;;;;;;;0.40;0.40;;;;;;;;;;5080088;28;20200;-65
2021/12/04 17:42:07;;;;;;;0.50;0.50;;;;;;;;;;5081564;28;20216;-66
2021/12/04 17:44:33;;;;;;;0.50;0.50;;;;;;;;;;5071277;28;20530;-65
2021/12/04 17:46:59;;;;;;;0.50;0.50;;;;;;;;;;5092776;28;20188;-66
2021/12/04 17:49:26;;;;;;;0.40;0.40;;;;;;;;;;5092404;28;20463;-66
2021/12/04 17:51:53;;;;;;;0.50;0.50;;;;;;;;;;5092017;28;20174;-65
2021/12/04 17:54:19;;;;;;;0.40;0.40;;;;;;;;;;5059783;28;20203;-66
2021/12/04 17:56:49;;;;;;;0.40;0.40;;;;;;;;;;5071887;28;20193;-66
2021/12/04 17:59:15;;;;;;;0.50;0.50;;;;;;;;;;5081353;28;20194;-66
2021/12/04 18:01:47;;;;;;;0.50;0.50;;;;;;;;;;5085314;28;20171;-66
2021/12/04 18:04:14;;;;;;;0.50;0.50;;;;;;;;;;5092118;28;20417;-67
2021/12/04 18:06:41;;;;;;;0.50;0.50;;;;;;;;;;5092103;28;20177;-67